Time;durP1;ratioP1;P1;durP2;ratioP2;P2;SDS_P1;SDS_P2;PMS_P1;PMS_P2;Temp;Humidity;BMP_temperature;BMP_pressure;BME280_temperature;BME280_humidity;BME280_pressure;Samples;Min_cycle;Max_cycle;Signal;HPM_P1;HPM_P2
2023/05/16 00:04:16;;;;;;;0.35;0.35;;;;;;;13.54;100.00;101796.47;10434266;28;20064;-80
2023/05/16 00:09:18;;;;;;;0.00;0.00;;;;;;;13.37;100.00;101795.91;10435420;28;20485;-80
2023/05/16 00:14:20;;;;;;;0.10;0.10;;;;;;;13.24;100.00;101798.16;10437181;28;20083;-79
2023/05/16 00:19:23;;;;;;;0.30;0.20;;;;;;;12.96;100.00;101802.53;10450226;28;20086;-79
2023/05/16 00:24:25;;;;;;;0.00;0.00;;;;;;;12.82;100.00;101802.09;10446596;28;20131;-79
2023/05/16 00:29:29;;;;;;;0.15;0.08;;;;;;;12.94;100.00;101808.50;10449308;28;20048;-79
2023/05/16 00:34:32;;;;;;;0.30;0.10;;;;;;;13.11;100.00;101809.84;10449951;28;20123;-80
2023/05/16 00:39:33;;;;;;;0.10;0.10;;;;;;;12.99;100.00;101818.13;10451281;28;20037;-80
2023/05/16 00:44:35;;;;;;;0.10;0.10;;;;;;;12.97;100.00;101818.91;10435246;28;20061;-80
2023/05/16 00:49:37;;;;;;;0.60;0.15;;;;;;;12.99;100.00;101823.28;10441607;28;20045;-79
2023/05/16 00:54:38;;;;;;;0.00;0.00;;;;;;;12.93;100.00;101820.53;10442724;28;20049;-78
2023/05/16 00:59:41;;;;;;;0.00;0.00;;;;;;;12.73;100.00;101819.03;10438705;28;20710;-78
2023/05/16 01:04:43;;;;;;;0.45;0.10;;;;;;;12.88;100.00;101819.50;10442837;28;20045;-78
2023/05/16 01:09:45;;;;;;;0.35;0.35;;;;;;;13.00;100.00;101819.88;10416251;28;20489;-80
2023/05/16 01:15:14;;;;;;;0.25;0.17;;;;;;;12.58;100.00;101820.28;10439888;28;20390;-81
2023/05/16 01:20:23;;;;;;;0.20;0.10;;;;;;;12.43;100.00;101824.97;10443206;28;20041;-81
2023/05/16 01:25:54;;;;;;;0.00;0.00;;;;;;;12.46;100.00;101827.66;10441460;28;20059;-81
2023/05/16 01:30:55;;;;;;;1.50;1.40;;;;;;;12.45;100.00;101823.31;10439779;28;20048;-81
2023/05/16 01:36:31;;;;;;;0.00;0.00;;;;;;;12.70;100.00;101831.03;10414370;28;20049;-81
2023/05/16 01:41:42;;;;;;;1.75;0.85;;;;;;;12.13;100.00;101836.03;10439023;28;20105;-80
2023/05/16 01:46:46;;;;;;;0.00;0.00;;;;;;;12.12;100.00;101839.44;10439706;28;20451;-81
2023/05/16 01:51:58;;;;;;;2.85;0.20;;;;;;;11.76;100.00;101845.91;10440136;28;20094;-81
2023/05/16 01:57:03;;;;;;;0.03;0.03;;;;;;;11.96;100.00;101838.84;10423985;28;20045;-81
2023/05/16 02:02:05;;;;;;;0.00;0.00;;;;;;;11.99;100.00;101854.50;10423832;28;20048;-81
2023/05/16 02:07:07;;;;;;;0.17;0.10;;;;;;;11.87;100.00;101854.03;10437263;28;20052;-82
2023/05/16 02:12:08;;;;;;;0.00;0.00;;;;;;;11.85;100.00;101855.69;10440022;28;20131;-81
2023/05/16 02:17:10;;;;;;;0.10;0.10;;;;;;;11.67;100.00;101861.94;10442004;28;20041;-81
2023/05/16 02:22:12;;;;;;;3.00;0.55;;;;;;;11.88;100.00;101867.00;10424447;28;20071;-80
2023/05/16 02:27:13;;;;;;;0.00;0.00;;;;;;;11.75;100.00;101868.25;10451273;28;20040;-81
2023/05/16 02:32:15;;;;;;;0.05;0.05;;;;;;;11.72;100.00;101870.75;10455441;28;20049;-81
2023/05/16 02:37:16;;;;;;;0.00;0.00;;;;;;;11.87;100.00;101869.53;10429902;28;20117;-80
2023/05/16 02:42:18;;;;;;;0.98;0.10;;;;;;;11.87;100.00;101874.72;10446595;28;20041;-81
2023/05/16 02:47:20;;;;;;;0.05;0.05;;;;;;;11.70;100.00;101882.69;10437816;28;20037;-81
2023/05/16 02:52:21;;;;;;;1.10;0.32;;;;;;;11.58;100.00;101892.56;10438168;28;20099;-82
2023/05/16 02:57:23;;;;;;;0.38;0.20;;;;;;;11.33;100.00;101896.78;10421237;28;20112;-81
2023/05/16 03:02:26;;;;;;;0.85;0.85;;;;;;;11.73;100.00;101898.28;10420775;28;20052;-82
2023/05/16 03:07:28;;;;;;;0.10;0.10;;;;;;;11.55;100.00;101897.63;10421282;28;20047;-81
2023/05/16 03:12:30;;;;;;;0.22;0.10;;;;;;;11.66;100.00;101906.63;10455637;28;20130;-79
2023/05/16 03:17:32;;;;;;;0.00;0.00;;;;;;;11.42;100.00;101899.75;10416888;28;20076;-80
2023/05/16 03:22:34;;;;;;;0.00;0.00;;;;;;;11.35;100.00;101914.91;10440240;28;20049;-80
2023/05/16 03:27:35;;;;;;;0.00;0.00;;;;;;;11.52;100.00;101907.81;10436787;28;20037;-80
2023/05/16 03:32:37;;;;;;;0.82;0.20;;;;;;;11.07;100.00;101914.69;10437525;28;20488;-80
2023/05/16 03:37:39;;;;;;;0.35;0.32;;;;;;;10.93;100.00;101915.84;10436501;28;20548;-80
2023/05/16 03:42:40;;;;;;;0.00;0.00;;;;;;;11.25;100.00;101924.84;10436826;28;20114;-80
2023/05/16 03:47:42;;;;;;;0.30;0.30;;;;;;;11.20;100.00;101925.53;10420931;28;20071;-80
2023/05/16 03:52:44;;;;;;;6.68;0.38;;;;;;;11.32;100.00;101930.28;10437364;28;20512;-80
2023/05/16 03:57:46;;;;;;;0.10;0.10;;;;;;;11.29;100.00;101933.59;10436050;28;20048;-80
2023/05/16 04:02:48;;;;;;;0.00;0.00;;;;;;;10.90;100.00;101938.94;10419905;28;20041;-80
2023/05/16 04:07:50;;;;;;;0.25;0.10;;;;;;;11.04;100.00;101937.81;10443126;28;20069;-79
2023/05/16 04:12:52;;;;;;;0.00;0.00;;;;;;;11.51;100.00;101947.34;10438548;28;20133;-79
2023/05/16 04:17:53;;;;;;;0.63;0.43;;;;;;;11.90;100.00;101949.69;10460038;28;20103;-78
2023/05/16 04:22:55;;;;;;;0.10;0.10;;;;;;;11.52;100.00;101943.94;10437605;28;20119;-78
2023/05/16 04:27:57;;;;;;;0.00;0.00;;;;;;;12.47;100.00;101950.91;10442400;28;20111;-79
2023/05/16 04:32:58;;;;;;;0.10;0.10;;;;;;;12.50;100.00;101951.00;10423778;28;20049;-79
2023/05/16 04:38:00;;;;;;;0.13;0.13;;;;;;;12.59;100.00;101966.81;10444052;28;20033;-79
2023/05/16 04:43:02;;;;;;;0.00;0.00;;;;;;;12.54;100.00;101981.31;10447297;28;20049;-79
2023/05/16 04:48:04;;;;;;;0.10;0.10;;;;;;;12.64;100.00;101975.59;10429940;28;20225;-79
2023/05/16 04:53:07;;;;;;;0.00;0.00;;;;;;;12.30;100.00;101973.53;10437785;28;20053;-79
2023/05/16 04:58:08;;;;;;;0.08;0.08;;;;;;;12.06;100.00;101985.63;10412008;28;20041;-79
2023/05/16 05:03:10;;;;;;;0.55;0.22;;;;;;;12.79;100.00;101974.38;10426712;28;20048;-79
2023/05/16 05:08:15;;;;;;;0.70;0.47;;;;;;;13.14;100.00;101977.28;10443720;28;20036;-79
2023/05/16 05:13:17;;;;;;;0.00;0.00;;;;;;;12.79;100.00;101995.06;10460547;28;20041;-79
2023/05/16 05:18:18;;;;;;;0.00;0.00;;;;;;;13.19;100.00;102001.59;10458813;28;20377;-79
2023/05/16 05:23:20;;;;;;;0.00;0.00;;;;;;;12.89;100.00;101999.72;10445528;28;20049;-79
2023/05/16 05:28:22;;;;;;;0.10;0.10;;;;;;;12.76;100.00;102003.59;10449560;28;20077;-79
2023/05/16 05:33:28;;;;;;;0.32;0.30;;;;;;;12.82;100.00;101998.63;10427979;28;20081;-79
2023/05/16 05:38:30;;;;;;;0.30;0.10;;;;;;;12.27;100.00;102010.47;10436527;28;20519;-79
2023/05/16 05:43:32;;;;;;;0.00;0.00;;;;;;;12.69;100.00;102014.56;10440726;28;20045;-79
2023/05/16 05:48:33;;;;;;;0.00;0.00;;;;;;;12.88;100.00;102021.25;10441627;28;20069;-80
2023/05/16 05:53:35;;;;;;;0.28;0.28;;;;;;;13.55;100.00;102013.97;10443012;28;20057;-80
2023/05/16 05:58:38;;;;;;;0.30;0.28;;;;;;;13.18;100.00;102025.69;10435159;28;20045;-79
2023/05/16 06:03:39;;;;;;;0.00;0.00;;;;;;;13.20;100.00;102033.50;10402239;28;20251;-79
2023/05/16 06:08:41;;;;;;;0.00;0.00;;;;;;;13.45;100.00;102023.16;10446141;28;20073;-79
2023/05/16 06:13:43;;;;;;;0.00;0.00;;;;;;;13.97;100.00;102025.59;10409664;28;20052;-79
2023/05/16 06:18:44;;;;;;;0.20;0.10;;;;;;;13.30;100.00;102041.63;10428679;28;20048;-80
2023/05/16 06:23:46;;;;;;;0.70;0.43;;;;;;;14.43;100.00;102036.41;10427544;28;20389;-79
2023/05/16 06:28:48;;;;;;;0.03;0.03;;;;;;;13.96;100.00;102040.25;10425657;28;20037;-81
2023/05/16 06:33:49;;;;;;;0.20;0.20;;;;;;;14.33;100.00;102030.09;10446179;28;20044;-79
2023/05/16 06:38:51;;;;;;;0.17;0.10;;;;;;;13.72;100.00;102034.34;10425551;28;20048;-79
2023/05/16 06:43:52;;;;;;;0.47;0.25;;;;;;;13.93;100.00;102035.00;10426135;28;20073;-82
2023/05/16 06:48:54;;;;;;;0.00;0.00;;;;;;;14.39;100.00;102044.97;10420810;28;20052;-80
2023/05/16 06:53:56;;;;;;;0.63;0.40;;;;;;;14.75;100.00;102039.06;10427890;28;20439;-80
2023/05/16 06:59:00;;;;;;;0.00;0.00;;;;;;;14.99;100.00;102037.94;10425345;28;20049;-81
2023/05/16 07:04:02;;;;;;;0.00;0.00;;;;;;;15.35;100.00;102042.31;10449548;28;20063;-80
2023/05/16 07:09:04;;;;;;;0.15;0.03;;;;;;;14.64;100.00;102046.50;10417021;28;20060;-80
2023/05/16 07:14:06;;;;;;;0.00;0.00;;;;;;;14.58;100.00;102049.81;10434343;28;20044;-80
2023/05/16 07:19:07;;;;;;;0.00;0.00;;;;;;;16.40;100.00;102044.66;10413067;28;20415;-80
2023/05/16 07:24:09;;;;;;;0.10;0.10;;;;;;;15.36;100.00;102051.84;10416527;28;20064;-79
2023/05/16 07:29:11;;;;;;;0.20;0.10;;;;;;;15.97;100.00;102048.97;10437833;28;20033;-79
2023/05/16 07:34:13;;;;;;;0.00;0.00;;;;;;;17.37;100.00;102050.75;10428245;28;20059;-81
2023/05/16 07:39:15;;;;;;;0.25;0.22;;;;;;;16.62;100.00;102045.94;10443395;28;20053;-83
2023/05/16 07:44:17;;;;;;;0.00;0.00;;;;;;;16.83;99.81;102043.72;10444711;28;20057;-79
2023/05/16 07:49:18;;;;;;;0.00;0.00;;;;;;;17.06;100.00;102042.44;10424575;28;20041;-80
2023/05/16 07:54:20;;;;;;;0.00;0.00;;;;;;;16.40;100.00;102043.75;10440187;28;20049;-80
2023/05/16 07:59:22;;;;;;;0.08;0.00;;;;;;;16.13;100.00;102052.75;10440398;28;20048;-80
2023/05/16 08:04:23;;;;;;;0.00;0.00;;;;;;;15.36;100.00;102054.44;10423859;28;20053;-81
2023/05/16 08:09:25;;;;;;;0.30;0.20;;;;;;;15.70;100.00;102063.94;10415528;28;20056;-81
2023/05/16 08:14:27;;;;;;;0.05;0.05;;;;;;;15.50;100.00;102073.84;10434659;28;20415;-81
2023/05/16 08:19:31;;;;;;;0.00;0.00;;;;;;;13.91;100.00;102090.19;10414705;28;20567;-84
2023/05/16 08:24:33;;;;;;;0.00;0.00;;;;;;;13.46;100.00;102096.50;10433091;28;20049;-80
2023/05/16 08:29:35;;;;;;;0.00;0.00;;;;;;;13.67;100.00;102103.22;10423962;28;20518;-80
2023/05/16 08:34:37;;;;;;;0.00;0.00;;;;;;;14.32;100.00;102100.91;10432017;28;20408;-80
2023/05/16 08:39:39;;;;;;;0.20;0.20;;;;;;;15.22;100.00;102080.97;10453713;28;20036;-81
2023/05/16 08:44:41;;;;;;;0.00;0.00;;;;;;;14.85;100.00;102082.59;10436533;28;20049;-80
2023/05/16 08:49:46;;;;;;;0.00;0.00;;;;;;;15.24;100.00;102080.97;10446502;28;20033;-80
2023/05/16 08:54:50;;;;;;;0.00;0.00;;;;;;;15.29;100.00;102083.69;10445504;28;20060;-80
2023/05/16 09:00:11;;;;;;;0.00;0.00;;;;;;;17.00;100.00;102078.78;10454239;28;20507;-80
2023/05/16 09:05:16;;;;;;;0.00;0.00;;;;;;;18.73;100.00;102063.88;10454412;28;20049;-80
2023/05/16 09:10:18;;;;;;;0.00;0.00;;;;;;;19.06;97.76;102057.25;10427827;28;20046;-80
2023/05/16 09:15:22;;;;;;;0.00;0.00;;;;;;;18.77;94.79;102049.97;10417897;28;20056;-81
2023/05/16 09:20:24;;;;;;;0.00;0.00;;;;;;;19.87;92.99;102033.47;10439085;28;20064;-82
2023/05/16 09:25:27;;;;;;;0.10;0.10;;;;;;;18.48;94.32;102042.72;10424444;28;20527;-82
2023/05/16 09:30:35;;;;;;;0.20;0.10;;;;;;;16.85;100.00;102047.22;10435596;28;20139;-82
2023/05/16 09:35:37;;;;;;;0.00;0.00;;;;;;;15.67;98.29;102057.78;10438192;28;20064;-82
2023/05/16 09:40:42;;;;;;;3.40;0.22;;;;;;;17.69;91.05;102047.75;10429825;28;20049;-80
2023/05/16 09:45:46;;;;;;;0.03;0.03;;;;;;;17.36;83.28;102051.59;10450230;28;20052;-81
2023/05/16 09:50:51;;;;;;;0.55;0.15;;;;;;;18.39;85.07;102060.00;10437433;28;20423;-81
2023/05/16 09:56:04;;;;;;;0.00;0.00;;;;;;;18.15;83.56;102054.47;10441393;28;20045;-81
2023/05/16 10:01:06;;;;;;;0.17;0.10;;;;;;;19.10;80.59;102049.44;10436457;28;20049;-81
2023/05/16 10:06:09;;;;;;;0.52;0.43;;;;;;;19.11;75.07;102050.31;10425765;28;20148;-84
2023/05/16 10:11:12;;;;;;;0.00;0.00;;;;;;;19.03;82.39;102038.06;10436797;28;20049;-80
2023/05/16 10:16:14;;;;;;;0.20;0.20;;;;;;;16.46;100.00;102077.69;10435252;28;20059;-80
2023/05/16 10:21:18;;;;;;;0.00;0.00;;;;;;;16.94;100.00;102073.47;10409732;28;20045;-80
2023/05/16 10:26:21;;;;;;;0.00;0.00;;;;;;;18.06;100.00;102053.50;10421256;28;20456;-81
2023/05/16 10:31:28;;;;;;;0.00;0.00;;;;;;;17.00;100.00;102070.97;10449884;28;20065;-82
2023/05/16 10:36:30;;;;;;;0.00;0.00;;;;;;;16.69;100.00;102072.97;10415568;28;20107;-79
2023/05/16 10:41:33;;;;;;;0.00;0.00;;;;;;;16.44;100.00;102072.47;10433973;28;20049;-79
2023/05/16 10:46:37;;;;;;;0.00;0.00;;;;;;;18.42;100.00;102063.53;10447798;28;20381;-80
2023/05/16 10:51:39;;;;;;;0.00;0.00;;;;;;;18.68;95.52;102058.59;10439431;28;20045;-80
2023/05/16 10:56:42;;;;;;;0.00;0.00;;;;;;;18.63;92.65;102058.53;10418074;28;20397;-80
2023/05/16 11:01:43;;;;;;;0.00;0.00;;;;;;;18.85;85.27;102048.31;10422561;28;20079;-81
2023/05/16 11:06:50;;;;;;;0.00;0.00;;;;;;;18.29;87.83;102045.09;10434511;28;20419;-80
2023/05/16 11:11:51;;;;;;;0.00;0.00;;;;;;;19.31;89.76;102027.88;10426766;28;20068;-83
2023/05/16 11:17:11;;;;;;;0.00;0.00;;;;;;;17.88;87.09;102040.19;10412959;28;20083;-80
2023/05/16 11:22:20;;;;;;;0.10;0.00;;;;;;;18.14;83.68;102043.19;10428428;28;20041;-81
2023/05/16 11:27:25;;;;;;;0.10;0.00;;;;;;;19.65;83.70;102033.31;10430586;28;20095;-81
2023/05/16 11:32:26;;;;;;;0.00;0.00;;;;;;;18.24;78.42;102041.56;10407322;28;20160;-82
2023/05/16 11:37:28;;;;;;;0.00;0.00;;;;;;;20.19;78.24;102032.75;10436617;28;20045;-82
2023/05/16 11:42:33;;;;;;;0.13;0.10;;;;;;;19.31;75.68;102030.47;10424559;28;20040;-81
2023/05/16 11:47:37;;;;;;;0.10;0.00;;;;;;;18.69;77.22;102040.34;10430891;28;20069;-81
2023/05/16 11:52:44;;;;;;;0.03;0.00;;;;;;;18.00;79.26;102034.31;10405950;28;20400;-82
2023/05/16 11:57:46;;;;;;;0.00;0.00;;;;;;;17.66;75.99;102045.13;10434051;28;20055;-79
2023/05/16 12:02:48;;;;;;;0.10;0.00;;;;;;;17.52;77.73;102052.72;10436091;28;20834;-82
2023/05/16 12:07:53;;;;;;;0.00;0.00;;;;;;;17.39;81.16;102046.44;10437989;28;20056;-82
2023/05/16 12:12:55;;;;;;;0.30;0.30;;;;;;;18.22;76.76;102052.00;10429240;28;20041;-80
2023/05/16 12:17:57;;;;;;;0.00;0.00;;;;;;;17.99;79.96;102064.72;10427664;28;20055;-82
2023/05/16 12:22:59;;;;;;;0.47;0.38;;;;;;;17.55;77.25;102057.09;10421725;28;20136;-81
2023/05/16 12:28:04;;;;;;;0.00;0.00;;;;;;;17.75;81.61;102058.28;10437352;28;20468;-80
2023/05/16 12:33:11;;;;;;;0.05;0.03;;;;;;;19.48;76.07;102045.38;10420066;28;20051;-83
2023/05/16 12:38:14;;;;;;;0.00;0.00;;;;;;;19.79;76.57;102062.16;10418792;28;20053;-82
2023/05/16 12:43:18;;;;;;;1.08;0.43;;;;;;;18.87;76.25;102059.66;10439886;28;20041;-80
2023/05/16 12:48:21;;;;;;;0.00;0.00;;;;;;;17.36;79.24;102059.41;10458109;28;20059;-80
2023/05/16 12:53:27;;;;;;;0.00;0.00;;;;;;;19.67;75.47;102051.59;10424158;28;20045;-81
2023/05/16 12:58:29;;;;;;;0.13;0.00;;;;;;;19.40;76.23;102052.31;10446853;28;20044;-81
2023/05/16 13:03:33;;;;;;;0.22;0.20;;;;;;;18.20;73.59;102068.47;10433573;28;20049;-79
2023/05/16 13:08:37;;;;;;;0.00;0.00;;;;;;;17.22;76.20;102081.75;10434917;28;20049;-81
2023/05/16 13:13:39;;;;;;;0.00;0.00;;;;;;;17.06;80.05;102089.28;10423836;28;20127;-80
2023/05/16 13:18:40;;;;;;;0.00;0.00;;;;;;;17.01;78.36;102090.94;10448496;28;20069;-81
2023/05/16 13:23:42;;;;;;;0.00;0.00;;;;;;;16.54;87.75;102101.28;10436957;28;20041;-82
2023/05/16 13:28:44;;;;;;;0.00;0.00;;;;;;;16.21;91.62;102120.50;10438530;28;20072;-81
2023/05/16 13:33:46;;;;;;;0.00;0.00;;;;;;;15.89;99.50;102110.28;10448685;28;20049;-82
2023/05/16 13:38:47;;;;;;;0.00;0.00;;;;;;;15.91;100.00;102111.16;10438251;28;20086;-80
2023/05/16 13:43:49;;;;;;;0.82;0.10;;;;;;;16.12;100.00;102116.84;10430143;28;20492;-80
2023/05/16 13:48:51;;;;;;;0.43;0.20;;;;;;;15.69;99.73;102121.94;10437404;28;20453;-81
2023/05/16 13:53:52;;;;;;;0.55;0.20;;;;;;;16.56;96.94;102115.19;10421849;28;20484;-81
2023/05/16 13:58:54;;;;;;;0.00;0.00;;;;;;;16.95;98.68;102119.44;10437518;28;20053;-80
2023/05/16 14:04:07;;;;;;;0.00;0.00;;;;;;;16.59;98.22;102117.84;10423727;28;20575;-81
2023/05/16 14:09:09;;;;;;;0.00;0.00;;;;;;;17.28;95.44;102120.91;10436057;28;20045;-80
2023/05/16 14:14:11;;;;;;;1.85;0.20;;;;;;;16.60;96.76;102127.41;10436293;28;20135;-80
2023/05/16 14:19:13;;;;;;;0.20;0.13;;;;;;;17.16;96.74;102133.72;10435961;28;20041;-80
2023/05/16 14:24:18;;;;;;;0.00;0.00;;;;;;;17.74;94.35;102124.28;10423125;28;20094;-79
2023/05/16 14:29:20;;;;;;;0.47;0.20;;;;;;;16.89;96.69;102124.50;10454410;28;20095;-79
2023/05/16 14:34:22;;;;;;;0.10;0.10;;;;;;;16.71;96.37;102133.72;10416585;28;20045;-80
2023/05/16 14:39:25;;;;;;;0.00;0.00;;;;;;;16.59;94.93;102133.47;10441486;28;20049;-82
2023/05/16 14:44:27;;;;;;;0.70;0.05;;;;;;;17.35;92.38;102122.78;10435943;28;20502;-80
2023/05/16 14:49:29;;;;;;;0.57;0.10;;;;;;;16.68;97.82;102136.25;10435106;28;20049;-79
2023/05/16 14:54:31;;;;;;;0.00;0.00;;;;;;;16.35;92.56;102137.28;10423006;28;20041;-82
2023/05/16 14:59:32;;;;;;;0.00;0.00;;;;;;;16.98;93.28;102142.09;10434238;28;20049;-79
2023/05/16 15:04:34;;;;;;;0.00;0.00;;;;;;;17.42;93.76;102139.41;10434632;28;20427;-79
2023/05/16 15:09:36;;;;;;;0.00;0.00;;;;;;;17.26;92.93;102138.25;10415422;28;20044;-79
2023/05/16 15:14:38;;;;;;;0.00;0.00;;;;;;;17.03;90.67;102145.63;10429133;28;20055;-81
2023/05/16 15:19:43;;;;;;;0.08;0.08;;;;;;;18.02;91.17;102131.69;10422030;28;20119;-79
2023/05/16 15:24:44;;;;;;;0.32;0.17;;;;;;;17.19;87.70;102149.41;10433083;28;20488;-81
2023/05/16 15:29:46;;;;;;;0.65;0.32;;;;;;;16.78;87.67;102140.81;10423044;28;20179;-79
2023/05/16 15:34:48;;;;;;;0.00;0.00;;;;;;;16.70;85.61;102147.59;10424266;28;20048;-80
2023/05/16 15:39:50;;;;;;;1.55;1.27;;;;;;;16.26;86.59;102150.13;10410499;28;20324;-80
2023/05/16 15:44:51;;;;;;;0.00;0.00;;;;;;;16.05;89.62;102161.75;10429477;28;20045;-79
2023/05/16 15:49:53;;;;;;;0.00;0.00;;;;;;;16.15;88.87;102163.72;10424902;28;20507;-80
2023/05/16 15:54:55;;;;;;;0.00;0.00;;;;;;;16.68;91.92;102164.88;10426252;28;20067;-80
2023/05/16 15:59:57;;;;;;;0.00;0.00;;;;;;;16.38;93.38;102170.31;10413621;28;20076;-79
2023/05/16 16:04:58;;;;;;;0.00;0.00;;;;;;;16.40;93.29;102169.50;10416949;28;20045;-79
2023/05/16 16:10:00;;;;;;;0.20;0.20;;;;;;;16.38;93.18;102176.38;10431467;28;20588;-79
2023/05/16 16:15:05;;;;;;;0.00;0.00;;;;;;;16.48;95.23;102183.56;10436447;28;20053;-79
2023/05/16 16:20:07;;;;;;;1.27;0.05;;;;;;;16.56;94.57;102180.25;10436331;28;20045;-79
2023/05/16 16:25:09;;;;;;;0.00;0.00;;;;;;;16.12;97.05;102179.25;10418295;28;20053;-80
2023/05/16 16:30:11;;;;;;;1.55;0.68;;;;;;;15.99;95.92;102188.50;10433415;28;20052;-80
2023/05/16 16:35:13;;;;;;;0.00;0.00;;;;;;;15.99;96.26;102192.81;10430838;28;20496;-80
2023/05/16 16:40:14;;;;;;;1.45;0.28;;;;;;;15.48;98.39;102186.31;10455589;28;20555;-81
2023/05/16 16:45:16;;;;;;;0.00;0.00;;;;;;;15.81;98.55;102186.31;10421634;28;20056;-79
2023/05/16 16:50:18;;;;;;;0.00;0.00;;;;;;;16.28;96.50;102180.50;10432408;28;20037;-80
2023/05/16 16:55:20;;;;;;;0.03;0.00;;;;;;;16.15;98.07;102189.72;10454906;28;20040;-80
2023/05/16 17:00:22;;;;;;;0.03;0.03;;;;;;;16.12;98.67;102199.19;10436376;28;20044;-79
2023/05/16 17:05:23;;;;;;;0.00;0.00;;;;;;;16.16;98.24;102193.19;10441177;28;20045;-79
2023/05/16 17:10:25;;;;;;;0.00;0.00;;;;;;;16.04;100.00;102196.41;10451766;28;20411;-79
2023/05/16 17:15:27;;;;;;;0.00;0.00;;;;;;;16.52;99.51;102196.59;10455042;28;20041;-80
2023/05/16 17:20:33;;;;;;;0.40;0.00;;;;;;;16.25;100.00;102210.75;10419905;28;20037;-80
2023/05/16 17:25:34;;;;;;;0.28;0.10;;;;;;;16.58;97.79;102199.34;10423768;28;20055;-80
2023/05/16 17:30:36;;;;;;;0.00;0.00;;;;;;;16.95;98.50;102206.25;10450683;28;20501;-80
2023/05/16 17:35:39;;;;;;;5.93;0.68;;;;;;;16.88;97.21;102211.25;10431097;28;20415;-79
2023/05/16 17:40:41;;;;;;;0.00;0.00;;;;;;;17.08;98.09;102212.59;10418250;28;20378;-79
2023/05/16 17:45:42;;;;;;;0.00;0.00;;;;;;;17.75;96.66;102211.19;10414956;28;20094;-79
2023/05/16 17:50:44;;;;;;;0.00;0.00;;;;;;;17.09;99.10;102219.53;10433096;28;20048;-80
2023/05/16 17:55:46;;;;;;;0.03;0.00;;;;;;;16.87;99.92;102212.97;10436601;28;20068;-79
2023/05/16 18:00:48;;;;;;;0.00;0.00;;;;;;;16.99;99.90;102221.91;10429489;28;20052;-80
2023/05/16 18:05:50;;;;;;;0.10;0.10;;;;;;;17.31;98.01;102219.97;10433635;28;20098;-80
2023/05/16 18:10:52;;;;;;;0.00;0.00;;;;;;;17.43;98.00;102224.50;10427850;28;20047;-79
2023/05/16 18:15:53;;;;;;;1.00;0.65;;;;;;;16.76;100.00;102225.78;10433979;28;20049;-80
2023/05/16 18:20:55;;;;;;;0.15;0.15;;;;;;;16.98;100.00;102239.28;10451317;28;20060;-80
2023/05/16 18:25:57;;;;;;;0.00;0.00;;;;;;;16.23;100.00;102238.44;10451904;28;20053;-81
2023/05/16 18:30:59;;;;;;;0.00;0.00;;;;;;;16.06;100.00;102259.69;10434219;28;20432;-80
2023/05/16 18:36:01;;;;;;;0.00;0.00;;;;;;;13.40;100.00;102299.13;10416357;28;20464;-80
2023/05/16 18:41:03;;;;;;;0.00;0.00;;;;;;;13.27;100.00;102299.44;10417310;28;20041;-82
2023/05/16 18:46:05;;;;;;;0.03;0.03;;;;;;;13.72;100.00;102303.69;10416701;28;20519;-80
2023/05/16 18:51:07;;;;;;;0.00;0.00;;;;;;;13.57;100.00;102304.91;10432209;28;20044;-80
2023/05/16 18:56:09;;;;;;;0.00;0.00;;;;;;;14.07;100.00;102299.72;10416074;28;20147;-79
2023/05/16 19:01:11;;;;;;;1.45;0.75;;;;;;;13.91;100.00;102290.53;10449990;28;20484;-80
2023/05/16 19:06:12;;;;;;;0.00;0.00;;;;;;;15.29;100.00;102275.84;10432386;28;20044;-80
2023/05/16 19:11:16;;;;;;;0.00;0.00;;;;;;;15.64;100.00;102278.50;10436469;28;20551;-80
2023/05/16 19:16:18;;;;;;;0.00;0.00;;;;;;;15.58;100.00;102283.53;10434098;28;20053;-80
2023/05/16 19:21:19;;;;;;;0.00;0.00;;;;;;;15.49;100.00;102289.34;10409970;28;20143;-80
2023/05/16 19:26:24;;;;;;;0.10;0.10;;;;;;;15.30;100.00;102295.78;10432989;28;20041;-80
2023/05/16 19:31:26;;;;;;;0.00;0.00;;;;;;;14.87;100.00;102298.84;10414904;28;20480;-79
2023/05/16 19:36:27;;;;;;;0.10;0.10;;;;;;;14.68;100.00;102302.56;10417302;28;20515;-80
2023/05/16 19:41:29;;;;;;;2.88;0.32;;;;;;;14.74;100.00;102294.09;10437786;28;20041;-80
2023/05/16 19:46:32;;;;;;;0.00;0.00;;;;;;;14.60;100.00;102297.13;10434265;28;20067;-80
2023/05/16 19:51:33;;;;;;;0.20;0.10;;;;;;;14.58;100.00;102303.09;10432480;28;20067;-80
2023/05/16 19:56:42;;;;;;;0.08;0.00;;;;;;;14.84;100.00;102309.13;10423449;28;20049;-79
2023/05/16 20:01:44;;;;;;;0.00;0.00;;;;;;;14.60;100.00;102307.50;10438166;28;20049;-80
2023/05/16 20:06:46;;;;;;;0.30;0.20;;;;;;;14.52;100.00;102306.38;10444857;28;20149;-80
2023/05/16 20:11:52;;;;;;;0.08;0.05;;;;;;;14.45;100.00;102309.59;10438445;28;20060;-80
2023/05/16 20:16:55;;;;;;;0.10;0.10;;;;;;;14.42;100.00;102314.69;10444557;28;20053;-80
2023/05/16 20:22:00;;;;;;;0.00;0.00;;;;;;;13.99;100.00;102314.13;10422536;28;20063;-80
2023/05/16 20:27:02;;;;;;;0.10;0.00;;;;;;;13.64;100.00;102306.00;10457332;28;20041;-80
2023/05/16 20:32:04;;;;;;;0.00;0.00;;;;;;;13.92;100.00;102310.44;10421776;28;20135;-80
2023/05/16 20:37:05;;;;;;;0.70;0.38;;;;;;;13.01;100.00;102317.47;10420264;28;20057;-81
2023/05/16 20:42:10;;;;;;;0.17;0.17;;;;;;;13.72;100.00;102322.69;10437772;28;20033;-80
2023/05/16 20:47:12;;;;;;;0.00;0.00;;;;;;;12.91;100.00;102331.75;10437116;28;20041;-80
2023/05/16 20:52:14;;;;;;;0.03;0.00;;;;;;;12.05;100.00;102335.16;10445474;28;20049;-80
2023/05/16 20:57:16;;;;;;;0.00;0.00;;;;;;;13.25;100.00;102333.03;10436840;28;20033;-80
2023/05/16 21:02:18;;;;;;;2.08;0.85;;;;;;;12.52;100.00;102347.44;10420210;28;20198;-80
2023/05/16 21:07:20;;;;;;;0.03;0.03;;;;;;;13.35;100.00;102343.75;10427736;28;20056;-80
2023/05/16 21:12:22;;;;;;;0.00;0.00;;;;;;;13.57;100.00;102346.34;10419997;28;20052;-80
2023/05/16 21:17:24;;;;;;;0.00;0.00;;;;;;;13.36;100.00;102340.34;10431782;28;20130;-78
2023/05/16 21:22:25;;;;;;;0.00;0.00;;;;;;;13.15;100.00;102356.78;10437174;28;20037;-79
2023/05/16 21:27:27;;;;;;;0.00;0.00;;;;;;;13.41;100.00;102350.06;10454414;28;20049;-79
2023/05/16 21:32:31;;;;;;;0.08;0.00;;;;;;;13.35;100.00;102341.16;10425333;28;20041;-78
2023/05/16 21:37:35;;;;;;;0.25;0.20;;;;;;;13.51;100.00;102351.31;10423731;28;20111;-78
2023/05/16 21:42:36;;;;;;;0.10;0.10;;;;;;;13.70;100.00;102351.97;10455605;28;20040;-79
2023/05/16 21:47:38;;;;;;;0.00;0.00;;;;;;;13.65;100.00;102354.38;10434561;28;20037;-78
2023/05/16 21:52:40;;;;;;;0.38;0.25;;;;;;;13.77;100.00;102351.34;10426904;28;20033;-78
2023/05/16 21:57:42;;;;;;;0.00;0.00;;;;;;;13.80;100.00;102364.44;10433260;28;20041;-78
2023/05/16 22:02:44;;;;;;;0.03;0.03;;;;;;;13.67;100.00;102365.69;10429032;28;20051;-78
2023/05/16 22:07:46;;;;;;;0.00;0.00;;;;;;;13.83;100.00;102361.94;10419568;28;20044;-78
2023/05/16 22:12:47;;;;;;;0.00;0.00;;;;;;;14.07;100.00;102369.69;10450599;28;20052;-78
2023/05/16 22:17:49;;;;;;;0.00;0.00;;;;;;;13.87;100.00;102371.59;10433903;28;20559;-79
2023/05/16 22:22:51;;;;;;;0.30;0.10;;;;;;;13.76;100.00;102367.72;10449969;28;20037;-79
2023/05/16 22:27:53;;;;;;;0.35;0.35;;;;;;;13.47;100.00;102362.34;10451234;28;20041;-79
2023/05/16 22:32:55;;;;;;;0.10;0.10;;;;;;;13.54;100.00;102369.53;10416674;28;20045;-79
2023/05/16 22:37:58;;;;;;;0.00;0.00;;;;;;;13.12;100.00;102387.75;10425266;28;20057;-79
2023/05/16 22:42:59;;;;;;;0.20;0.20;;;;;;;13.01;100.00;102372.66;10433272;28;20116;-80
2023/05/16 22:48:01;;;;;;;0.00;0.00;;;;;;;13.00;100.00;102378.66;10429107;28;20052;-79
2023/05/16 22:53:03;;;;;;;0.30;0.13;;;;;;;13.10;100.00;102379.94;10427277;28;20045;-79
2023/05/16 22:58:04;;;;;;;0.80;0.32;;;;;;;13.14;100.00;102380.94;10433648;28;20428;-79
2023/05/16 23:03:06;;;;;;;0.00;0.00;;;;;;;12.89;100.00;102390.28;10432656;28;20048;-80